createdAt,value
2018-11-21T00:00:40.313Z,20.23
2018-11-21T00:01:58.330Z,21.70
2018-11-21T00:03:23.285Z,20.73
2018-11-21T00:04:41.608Z,19.27
2018-11-21T00:06:07.753Z,19.60
2018-11-21T00:07:25.656Z,23.67
2018-11-21T00:08:51.516Z,20.73
2018-11-21T00:10:09.833Z,21.02
2018-11-21T00:11:36.644Z,21.80
2018-11-21T00:12:55.068Z,21.93
2018-11-21T00:14:20.909Z,20.10
2018-11-21T00:15:38.580Z,19.67
2018-11-21T00:17:03.406Z,21.75
2018-11-21T00:18:22.074Z,22.10
2018-11-21T00:19:47.849Z,20.17
2018-11-21T00:21:05.434Z,21.87
2018-11-21T00:22:31.173Z,22.00
2018-11-21T00:23:49.260Z,21.47
2018-11-21T00:25:15.183Z,22.77
2018-11-21T00:26:33.439Z,19.60
2018-11-21T00:27:58.356Z,21.60
2018-11-21T00:29:16.737Z,23.27
2018-11-21T00:30:43.012Z,22.00
2018-11-21T00:32:00.871Z,22.27
2018-11-21T00:33:26.742Z,22.30
2018-11-21T00:34:46.041Z,22.30
2018-11-21T00:36:11.292Z,23.63
2018-11-21T00:37:29.435Z,21.55
2018-11-21T00:38:54.699Z,21.60
2018-11-21T00:40:14.316Z,21.03
2018-11-21T00:41:40.225Z,23.47
2018-11-21T00:42:58.048Z,23.07
2018-11-21T00:44:23.308Z,24.03
2018-11-21T00:45:41.332Z,25.90
2018-11-21T00:47:06.910Z,23.80
2018-11-21T00:48:24.615Z,22.40
2018-11-21T00:49:49.872Z,19.93
2018-11-21T00:51:08.344Z,21.30
2018-11-21T00:52:35.013Z,22.80
2018-11-21T00:53:52.588Z,26.03
2018-11-21T00:55:18.878Z,23.52
2018-11-21T00:56:37.253Z,24.17
2018-11-21T00:58:02.108Z,26.67
2018-11-21T00:59:20.098Z,25.30
2018-11-21T01:00:45.732Z,24.30
2018-11-21T01:02:04.249Z,22.63
2018-11-21T01:03:29.633Z,25.40
2018-11-21T01:04:47.779Z,25.55
2018-11-21T01:06:12.601Z,24.23
2018-11-21T01:07:30.809Z,24.35
2018-11-21T01:08:55.736Z,25.08
2018-11-21T01:10:13.302Z,21.85
2018-11-21T01:11:38.911Z,26.20
2018-11-21T01:13:00.959Z,25.57
2018-11-21T01:14:27.387Z,23.95
2018-11-21T01:15:48.090Z,24.00
2018-11-21T01:17:13.546Z,23.00
2018-11-21T01:18:31.271Z,24.90
2018-11-21T01:19:56.591Z,24.87
2018-11-21T01:21:14.546Z,23.93
2018-11-21T01:22:39.538Z,24.13
2018-11-21T01:23:58.278Z,25.50
2018-11-21T01:25:23.697Z,24.77
2018-11-21T01:26:41.852Z,24.83
2018-11-21T01:28:06.689Z,22.03
2018-11-21T01:29:25.584Z,24.70
2018-11-21T01:30:51.012Z,24.10
2018-11-21T01:32:09.326Z,23.40
2018-11-21T01:33:35.116Z,25.13
2018-11-21T01:34:52.896Z,25.62
2018-11-21T01:36:19.728Z,24.73
2018-11-21T01:37:38.578Z,25.50
2018-11-21T01:39:04.006Z,23.10
2018-11-21T01:40:22.059Z,24.90
2018-11-21T01:41:46.851Z,23.73
2018-11-21T01:43:04.858Z,23.90
2018-11-21T01:44:30.285Z,25.90
2018-11-21T01:45:48.639Z,24.60
2018-11-21T01:47:13.840Z,26.15
2018-11-21T01:48:32.248Z,25.50
2018-11-21T01:49:58.430Z,27.87
2018-11-21T01:51:16.465Z,24.77
2018-11-21T01:52:41.661Z,27.03
2018-11-21T01:53:59.924Z,25.80
2018-11-21T01:55:25.383Z,24.77
2018-11-21T01:56:43.911Z,26.93
2018-11-21T01:58:08.729Z,24.63
2018-11-21T01:59:27.394Z,25.10
2018-11-21T02:00:53.143Z,24.93
2018-11-21T02:02:11.459Z,24.80
2018-11-21T02:03:37.607Z,25.80
2018-11-21T02:04:55.806Z,27.90
2018-11-21T02:06:21.010Z,28.00
2018-11-21T02:07:38.750Z,26.27
2018-11-21T02:09:05.626Z,26.80
2018-11-21T02:10:23.919Z,25.20
2018-11-21T02:11:49.154Z,27.87
2018-11-21T02:13:07.171Z,26.67
2018-11-21T02:14:32.730Z,27.40
2018-11-21T02:15:50.518Z,26.93
2018-11-21T02:17:17.360Z,29.17
2018-11-21T02:18:35.749Z,28.00
2018-11-21T02:20:00.865Z,27.70
2018-11-21T02:21:19.170Z,29.33
2018-11-21T02:22:44.177Z,28.00
2018-11-21T02:24:02.942Z,26.50
2018-11-21T02:25:28.492Z,27.40
2018-11-21T02:26:47.338Z,27.80
2018-11-21T02:28:12.583Z,28.50
2018-11-21T02:29:31.248Z,26.40
2018-11-21T02:30:56.125Z,27.10
2018-11-21T02:32:15.115Z,28.00
2018-11-21T02:33:40.273Z,24.67
2018-11-21T02:34:58.797Z,28.47
2018-11-21T02:36:25.244Z,27.57
2018-11-21T02:37:43.214Z,26.20
2018-11-21T02:39:10.002Z,29.20
2018-11-21T02:40:28.416Z,28.50
2018-11-21T02:42:14.313Z,25.97
2018-11-21T02:43:32.254Z,27.80
2018-11-21T02:44:58.736Z,28.70
2018-11-21T02:46:17.508Z,29.30
2018-11-21T02:47:42.256Z,28.40
2018-11-21T02:49:00.085Z,26.85
2018-11-21T02:50:25.736Z,27.50
2018-11-21T02:51:44.321Z,28.17
2018-11-21T02:53:09.841Z,28.63
2018-11-21T02:54:28.696Z,27.73
2018-11-21T02:55:53.570Z,26.60
2018-11-21T02:57:31.822Z,26.95
2018-11-21T02:58:56.679Z,28.13
2018-11-21T03:00:18.145Z,27.70
2018-11-21T03:01:43.752Z,26.27
2018-11-21T03:03:01.679Z,29.95
2018-11-21T03:04:27.178Z,28.50
2018-11-21T03:05:45.345Z,25.30
2018-11-21T03:07:10.237Z,29.18
2018-11-21T03:08:28.690Z,31.07
2018-11-21T03:09:53.617Z,27.07
2018-11-21T03:11:11.921Z,26.93
2018-11-21T03:12:37.731Z,27.90
2018-11-21T03:13:54.428Z,28.60
2018-11-21T03:15:20.196Z,27.20
2018-11-21T03:16:38.530Z,26.53
2018-11-21T03:18:03.361Z,27.77
2018-11-21T03:19:21.133Z,28.37
2018-11-21T03:20:46.649Z,27.80
2018-11-21T03:22:04.509Z,28.20
2018-11-21T03:23:29.697Z,29.30
2018-11-21T03:24:47.627Z,25.40
2018-11-21T03:26:13.382Z,29.03
2018-11-21T03:27:31.286Z,26.43
2018-11-21T03:28:56.913Z,27.23
2018-11-21T03:30:15.414Z,27.52
2018-11-21T03:31:40.251Z,27.67
2018-11-21T03:32:58.768Z,29.53
2018-11-21T03:34:23.961Z,27.30
2018-11-21T03:35:41.994Z,24.17
2018-11-21T03:37:07.778Z,26.13
2018-11-21T03:38:25.690Z,25.57
2018-11-21T03:39:50.576Z,27.17
2018-11-21T03:41:08.288Z,27.13
2018-11-21T03:42:33.188Z,25.90
2018-11-21T03:43:50.770Z,25.60
2018-11-21T03:45:15.678Z,27.23
2018-11-21T03:46:33.775Z,25.97
2018-11-21T03:47:58.927Z,26.43
2018-11-21T03:49:16.977Z,25.67
2018-11-21T03:50:42.175Z,25.37
2018-11-21T03:51:59.772Z,23.40
2018-11-21T03:53:24.980Z,27.13
2018-11-21T03:54:43.681Z,25.40
2018-11-21T03:56:08.759Z,25.50
2018-11-21T03:57:26.735Z,26.37
2018-11-21T03:58:52.518Z,26.83
2018-11-21T04:00:11.212Z,28.10
2018-11-21T04:01:36.840Z,27.73
2018-11-21T04:02:55.157Z,25.20
2018-11-21T04:04:20.653Z,28.00
2018-11-21T04:05:38.770Z,26.53
2018-11-21T04:07:04.334Z,25.50
2018-11-21T04:08:23.178Z,25.97
2018-11-21T04:09:48.939Z,26.80
2018-11-21T04:11:07.825Z,27.07
2018-11-21T04:12:34.007Z,23.20
2018-11-21T04:13:51.923Z,26.73
2018-11-21T04:15:17.226Z,28.47
2018-11-21T04:16:35.587Z,25.00
2018-11-21T04:18:00.933Z,27.87
2018-11-21T04:19:18.927Z,22.23
2018-11-21T04:20:45.608Z,27.20
2018-11-21T04:22:03.146Z,29.47
2018-11-21T04:23:28.420Z,28.27
2018-11-21T04:24:46.863Z,27.90
2018-11-21T04:26:11.645Z,26.47
2018-11-21T04:27:29.999Z,28.40
2018-11-21T04:28:55.501Z,27.67
2018-11-21T04:30:14.153Z,27.10
2018-11-21T04:31:39.336Z,26.73
2018-11-21T04:32:56.843Z,27.50
2018-11-21T04:34:23.064Z,27.53
2018-11-21T04:35:41.601Z,29.20
2018-11-21T04:37:06.936Z,26.97
2018-11-21T04:38:24.834Z,25.07
2018-11-21T04:39:49.827Z,26.73
2018-11-21T04:41:07.884Z,29.13
2018-11-21T04:42:33.394Z,25.97
2018-11-21T04:43:51.274Z,25.90
2018-11-21T04:45:16.812Z,27.07
2018-11-21T04:46:34.720Z,25.37
2018-11-21T04:48:00.071Z,26.40
2018-11-21T04:49:15.899Z,26.70
2018-11-21T04:50:41.378Z,26.83
2018-11-21T04:51:59.782Z,28.13
2018-11-21T04:53:25.820Z,26.73
2018-11-21T04:54:44.139Z,26.60
2018-11-21T04:56:09.403Z,26.17
2018-11-21T04:57:27.812Z,27.50
2018-11-21T04:58:53.403Z,26.90
2018-11-21T05:00:11.832Z,28.80
2018-11-21T05:01:37.018Z,27.47
2018-11-21T05:02:55.124Z,27.47
2018-11-21T05:04:20.318Z,28.37
2018-11-21T05:05:38.476Z,27.30
2018-11-21T05:07:03.759Z,29.93
2018-11-21T05:08:21.507Z,27.57
2018-11-21T05:09:47.317Z,27.13
2018-11-21T05:11:04.941Z,28.40
2018-11-21T05:12:30.354Z,25.00
2018-11-21T05:13:48.189Z,29.53
2018-11-21T05:15:13.165Z,27.10
2018-11-21T05:16:30.864Z,28.57
2018-11-21T05:17:56.268Z,26.80
2018-11-21T05:19:14.931Z,28.70
2018-11-21T05:20:40.199Z,28.37
2018-11-21T05:21:57.950Z,29.03
2018-11-21T05:23:23.692Z,28.80
2018-11-21T05:24:41.242Z,27.20
2018-11-21T05:26:06.369Z,27.60
2018-11-21T05:27:25.877Z,28.00
2018-11-21T05:28:51.577Z,27.47
2018-11-21T05:30:10.369Z,31.10
2018-11-21T05:31:35.174Z,28.40
2018-11-21T05:32:53.823Z,28.73
2018-11-21T05:34:18.633Z,32.57
2018-11-21T05:35:36.848Z,27.70
2018-11-21T05:37:01.702Z,29.97
2018-11-21T05:38:20.233Z,28.00
2018-11-21T05:39:46.661Z,30.00
2018-11-21T05:41:04.543Z,28.93
2018-11-21T05:42:29.532Z,28.57
2018-11-21T05:43:47.409Z,26.57
2018-11-21T05:45:13.009Z,30.43
2018-11-21T05:46:31.452Z,31.30
2018-11-21T05:47:57.184Z,28.40
2018-11-21T05:49:15.455Z,32.03
2018-11-21T05:50:40.936Z,30.30
2018-11-21T05:51:58.462Z,30.63
2018-11-21T05:53:23.696Z,29.67
2018-11-21T05:54:43.116Z,27.87
2018-11-21T05:56:08.128Z,31.37
2018-11-21T05:57:26.944Z,32.40
2018-11-21T05:58:53.931Z,29.43
2018-11-21T06:00:13.428Z,31.00
2018-11-21T06:01:39.433Z,31.33
2018-11-21T06:02:56.839Z,31.20
2018-11-21T06:04:21.596Z,30.10
2018-11-21T06:05:40.020Z,30.43
2018-11-21T06:07:05.193Z,28.40
2018-11-21T06:08:23.100Z,29.90
2018-11-21T06:09:48.458Z,31.70
2018-11-21T06:11:06.426Z,29.80
2018-11-21T06:12:32.641Z,29.83
2018-11-21T06:13:51.568Z,29.57
2018-11-21T06:15:16.699Z,32.05
2018-11-21T06:16:34.795Z,28.13
2018-11-21T06:18:00.080Z,28.10
2018-11-21T06:19:18.124Z,30.30
2018-11-21T06:20:42.942Z,30.70
2018-11-21T06:22:00.710Z,31.30
2018-11-21T06:23:26.177Z,30.30
2018-11-21T06:24:45.064Z,29.67
2018-11-21T06:26:09.978Z,27.77
2018-11-21T06:27:28.014Z,32.77
2018-11-21T06:28:54.125Z,30.53
2018-11-21T06:30:13.235Z,31.23
2018-11-21T06:31:38.276Z,30.90
2018-11-21T06:32:58.180Z,29.63
2018-11-21T06:34:23.880Z,30.60
2018-11-21T06:35:42.490Z,29.57
2018-11-21T06:37:07.291Z,30.57
2018-11-21T06:38:25.571Z,30.65
2018-11-21T06:39:50.875Z,31.03
2018-11-21T06:41:09.073Z,31.17
2018-11-21T06:42:34.447Z,30.90
2018-11-21T06:43:52.315Z,30.30
2018-11-21T06:45:18.063Z,28.67
2018-11-21T06:46:36.381Z,31.40
2018-11-21T06:48:02.612Z,30.67
2018-11-21T06:49:21.251Z,29.83
2018-11-21T06:50:47.036Z,30.80
2018-11-21T06:52:05.210Z,29.73
2018-11-21T06:53:30.769Z,29.93
2018-11-21T06:54:49.758Z,30.87
2018-11-21T06:56:14.748Z,34.17
2018-11-21T06:57:32.572Z,29.67
2018-11-21T06:58:57.871Z,31.23
2018-11-21T07:00:16.335Z,30.87
2018-11-21T07:02:00.921Z,31.20
2018-11-21T07:03:19.218Z,29.90
2018-11-21T07:04:44.378Z,29.95
2018-11-21T07:06:02.668Z,28.00
2018-11-21T07:07:27.523Z,29.63
2018-11-21T07:08:46.094Z,29.13
2018-11-21T07:10:13.445Z,30.33
2018-11-21T07:11:31.972Z,30.20
2018-11-21T07:12:57.182Z,27.20
2018-11-21T07:14:15.634Z,29.00
2018-11-21T07:15:40.417Z,30.40
2018-11-21T07:16:58.111Z,29.63
2018-11-21T07:18:23.671Z,31.37
2018-11-21T07:19:41.822Z,28.98
2018-11-21T07:21:06.634Z,28.20
2018-11-21T07:22:25.261Z,31.00
2018-11-21T07:23:50.759Z,30.30
2018-11-21T07:25:11.343Z,30.47
2018-11-21T07:26:29.208Z,31.93
2018-11-21T07:27:47.020Z,29.77
2018-11-21T07:29:05.045Z,27.73
2018-11-21T07:30:30.396Z,29.53
2018-11-21T07:31:48.352Z,29.70
2018-11-21T07:33:13.512Z,30.70
2018-11-21T07:34:32.286Z,30.57
2018-11-21T07:35:57.832Z,31.00
2018-11-21T07:37:16.002Z,27.90
2018-11-21T07:38:41.136Z,30.50
2018-11-21T07:39:59.209Z,30.33
2018-11-21T07:41:24.696Z,29.63
2018-11-21T07:42:42.886Z,28.13
2018-11-21T07:44:01.211Z,30.05
2018-11-21T07:45:18.544Z,30.93
2018-11-21T07:46:36.637Z,30.60
2018-11-21T07:47:56.168Z,30.77
2018-11-21T07:49:13.765Z,29.72
2018-11-21T07:50:32.730Z,31.17
2018-11-21T07:51:50.793Z,29.73
2018-11-21T07:53:09.320Z,30.27
2018-11-21T07:54:29.845Z,29.48
2018-11-21T07:55:47.627Z,26.80
2018-11-21T07:57:13.355Z,30.92
2018-11-21T07:58:31.675Z,29.30
2018-11-21T08:00:09.207Z,28.70
2018-11-21T08:01:30.183Z,28.40
2018-11-21T08:02:48.037Z,28.07
2018-11-21T08:04:17.199Z,29.50
2018-11-21T08:05:34.917Z,28.57
2018-11-21T08:07:04.500Z,27.97
2018-11-21T08:08:41.283Z,31.07
2018-11-21T08:10:26.251Z,29.50
2018-11-21T08:12:03.203Z,30.80
2018-11-21T08:13:47.569Z,27.17
2018-11-21T08:15:24.335Z,28.50
2018-11-21T08:17:08.533Z,29.07
2018-11-21T08:18:45.451Z,28.13
2018-11-21T08:20:22.107Z,29.10
2018-11-21T08:22:05.993Z,28.30
2018-11-21T08:23:43.002Z,28.93
2018-11-21T08:25:26.854Z,31.37
2018-11-21T08:26:50.874Z,29.13
2018-11-21T08:28:20.263Z,31.15
2018-11-21T08:29:38.136Z,30.80
2018-11-21T08:30:56.296Z,30.90
2018-11-21T08:32:21.861Z,29.03
2018-11-21T08:33:39.611Z,30.20
2018-11-21T08:35:04.526Z,30.17
2018-11-21T08:36:22.694Z,29.67
2018-11-21T08:37:49.385Z,28.97
2018-11-21T08:39:08.167Z,27.80
2018-11-21T08:40:33.884Z,29.60
2018-11-21T08:41:51.886Z,27.10
2018-11-21T08:43:17.604Z,32.33
2018-11-21T08:44:35.800Z,30.07
2018-11-21T08:46:00.971Z,31.57
2018-11-21T08:47:19.035Z,29.63
2018-11-21T08:48:44.216Z,28.90
2018-11-21T08:50:02.060Z,29.00
2018-11-21T08:51:27.705Z,29.20
2018-11-21T08:52:46.443Z,28.67
2018-11-21T08:54:11.439Z,27.27
2018-11-21T08:55:29.073Z,28.13
2018-11-21T08:56:53.945Z,28.43
2018-11-21T08:58:12.211Z,29.33
2018-11-21T08:59:38.283Z,27.13
2018-11-21T09:00:57.408Z,28.00
2018-11-21T09:02:22.595Z,26.17
2018-11-21T09:03:40.764Z,27.53
2018-11-21T09:05:07.253Z,28.63
2018-11-21T09:06:25.047Z,28.60
2018-11-21T09:09:48.679Z,29.90
2018-11-21T09:11:06.270Z,25.27
2018-11-21T09:12:24.707Z,30.13
2018-11-21T09:13:43.269Z,28.67
2018-11-21T09:15:02.026Z,31.47
2018-11-21T09:16:20.057Z,30.20
2018-11-21T09:17:38.232Z,28.27
2018-11-21T09:18:56.353Z,27.47
2018-11-21T09:20:14.489Z,27.10
2018-11-21T09:21:33.003Z,28.10
2018-11-21T09:22:51.172Z,28.83
2018-11-21T09:24:09.052Z,28.20
2018-11-21T09:25:27.574Z,26.80
2018-11-21T09:26:45.959Z,28.37
2018-11-21T09:28:04.294Z,26.70
2018-11-21T09:29:22.145Z,27.60
2018-11-21T09:30:40.178Z,29.60
2018-11-21T09:31:59.820Z,29.67
2018-11-21T09:33:17.801Z,28.47
2018-11-21T09:34:35.960Z,29.23
2018-11-21T09:36:01.132Z,30.97
2018-11-21T09:37:18.636Z,29.00
2018-11-21T09:38:43.571Z,27.40
2018-11-21T09:40:01.388Z,26.40
2018-11-21T09:41:26.295Z,29.00
2018-11-21T09:42:45.683Z,27.63
2018-11-21T09:44:10.875Z,29.27
2018-11-21T09:45:28.240Z,26.33
2018-11-21T09:46:54.167Z,27.70
2018-11-21T09:48:11.923Z,27.27
2018-11-21T09:49:38.592Z,26.73
2018-11-21T09:50:56.467Z,27.27
2018-11-21T09:52:21.679Z,27.97
2018-11-21T09:53:39.332Z,27.57
2018-11-21T09:54:57.308Z,27.33
2018-11-21T09:56:15.432Z,28.70
2018-11-21T09:57:33.402Z,29.00
2018-11-21T09:58:50.922Z,26.73
2018-11-21T10:00:27.722Z,29.10
2018-11-21T10:02:31.808Z,27.60
2018-11-21T10:03:48.188Z,23.80
2018-11-21T10:05:12.954Z,26.57
2018-11-21T10:06:31.769Z,26.07
2018-11-21T10:07:54.046Z,27.03
2018-11-21T10:09:17.037Z,25.70
2018-11-21T10:10:34.959Z,34.33
2018-11-21T10:12:00.513Z,27.33
2018-11-21T10:13:18.507Z,26.77
2018-11-21T10:14:43.504Z,25.20
2018-11-21T10:16:02.114Z,26.87
2018-11-21T10:17:20.468Z,27.63
2018-11-21T10:18:39.571Z,27.60
2018-11-21T10:19:57.307Z,25.37
2018-11-21T10:21:17.811Z,25.07
2018-11-21T10:22:35.630Z,24.23
2018-11-21T10:23:53.929Z,29.67
2018-11-21T10:25:13.247Z,31.50
2018-11-21T10:26:31.223Z,28.17
2018-11-21T10:27:49.514Z,27.50
2018-11-21T10:29:08.439Z,25.47
2018-11-21T10:30:26.099Z,26.00
2018-11-21T10:31:43.178Z,26.87
2018-11-21T10:33:01.224Z,24.60
2018-11-21T10:34:19.169Z,27.00
2018-11-21T10:35:37.755Z,25.87
2018-11-21T10:36:55.452Z,29.13
2018-11-21T10:38:13.573Z,23.90
2018-11-21T10:39:31.770Z,26.67
2018-11-21T10:40:49.925Z,27.43
2018-11-21T10:42:08.626Z,25.93
2018-11-21T10:43:28.334Z,25.73
2018-11-21T10:44:43.808Z,24.17
2018-11-21T10:46:02.749Z,26.27
2018-11-21T10:47:20.959Z,24.20
2018-11-21T10:48:45.818Z,26.10
2018-11-21T10:50:03.741Z,27.00
2018-11-21T10:51:28.586Z,24.67
2018-11-21T10:52:46.600Z,26.00
2018-11-21T10:54:11.495Z,31.40
2018-11-21T10:55:30.580Z,26.30
2018-11-21T10:56:56.132Z,25.30
2018-11-21T10:58:14.663Z,26.00
2018-11-21T10:59:39.621Z,28.60
2018-11-21T11:01:17.386Z,27.00
2018-11-21T11:03:01.229Z,26.17
2018-11-21T11:04:45.121Z,25.10
2018-11-21T11:06:22.072Z,27.17
2018-11-21T11:08:05.794Z,25.70
2018-11-21T11:09:42.745Z,27.13
2018-11-21T11:11:27.031Z,23.90
2018-11-21T11:13:03.893Z,23.57
2018-11-21T11:16:54.064Z,23.70
2018-11-21T11:18:24.259Z,24.73
2018-11-21T11:20:08.539Z,32.10
2018-11-21T11:21:41.643Z,28.13
2018-11-21T11:23:18.660Z,31.63
2018-11-21T11:25:02.831Z,22.80
2018-11-21T11:26:39.909Z,24.07
2018-11-21T11:28:23.752Z,22.67
2018-11-21T11:30:00.960Z,24.67
2018-11-21T11:31:44.943Z,24.43
2018-11-21T11:33:21.802Z,24.23
2018-11-21T11:34:58.929Z,23.03
2018-11-21T11:36:29.903Z,23.13
2018-11-21T11:38:06.947Z,21.03
2018-11-21T11:39:50.637Z,21.33
2018-11-21T11:41:30.178Z,22.83
2018-11-21T11:43:14.886Z,22.20
2018-11-21T11:44:54.379Z,23.77
2018-11-21T11:46:38.250Z,22.00
2018-11-21T11:48:15.182Z,21.47
2018-11-21T11:49:48.773Z,22.03
2018-11-21T11:51:25.258Z,19.47
2018-11-21T11:53:02.378Z,23.00
2018-11-21T11:54:39.244Z,21.27
2018-11-21T11:56:13.279Z,21.03
2018-11-21T11:57:50.160Z,21.70
2018-11-21T11:59:26.793Z,22.00
2018-11-21T12:01:03.719Z,22.87
2018-11-21T12:02:48.558Z,27.10
2018-11-21T12:04:25.213Z,25.00
2018-11-21T12:06:09.395Z,24.83
2018-11-21T12:07:52.070Z,20.67
2018-11-21T12:09:35.853Z,22.20
2018-11-21T12:11:15.422Z,22.00
2018-11-21T12:13:01.076Z,22.40
2018-11-21T12:14:35.172Z,21.93
2018-11-21T12:16:11.990Z,21.90
2018-11-21T12:17:51.353Z,22.97
2018-11-21T12:19:31.040Z,21.70
2018-11-21T12:21:14.843Z,21.60
2018-11-21T12:22:51.842Z,21.00
2018-11-21T12:24:36.149Z,20.10
2018-11-21T12:26:19.169Z,20.53
2018-11-21T12:27:56.104Z,20.53
2018-11-21T12:29:36.624Z,20.87
2018-11-21T12:31:21.015Z,19.80
2018-11-21T12:32:58.251Z,19.70
2018-11-21T12:34:42.715Z,20.50
2018-11-21T12:36:19.782Z,21.00
2018-11-21T12:38:03.841Z,23.20
2018-11-21T12:39:40.882Z,21.70
2018-11-21T12:41:24.951Z,19.20
2018-11-21T12:43:02.008Z,22.20
2018-11-21T12:44:41.763Z,24.33
2018-11-21T12:46:18.722Z,21.57
2018-11-21T12:48:01.506Z,20.40
2018-11-21T12:49:45.353Z,22.17
2018-11-21T12:51:21.900Z,19.80
2018-11-21T12:53:04.394Z,20.70
2018-11-21T12:54:29.130Z,19.77
2018-11-21T12:56:12.178Z,19.57
2018-11-21T12:57:56.025Z,21.30
2018-11-21T12:59:38.842Z,19.43
2018-11-21T13:01:23.167Z,18.33
2018-11-21T13:02:52.844Z,19.43
2018-11-21T13:04:33.060Z,21.13
2018-11-21T13:06:10.128Z,18.57
2018-11-21T13:07:37.649Z,21.90
2018-11-21T13:09:21.656Z,21.50
2018-11-21T13:11:01.076Z,21.00
2018-11-21T13:12:44.974Z,20.40
2018-11-21T13:14:24.890Z,19.60
2018-11-21T13:16:01.916Z,18.67
2018-11-21T13:17:38.753Z,20.83
2018-11-21T13:19:16.252Z,21.23
2018-11-21T13:21:00.467Z,19.60
2018-11-21T13:22:37.488Z,21.57
2018-11-21T13:24:21.625Z,22.57
2018-11-21T13:26:01.524Z,21.93
2018-11-21T13:27:39.175Z,20.60
2018-11-21T13:29:17.259Z,23.00
2018-11-21T13:30:52.862Z,20.73
2018-11-21T13:32:29.872Z,22.63
2018-11-21T13:34:07.446Z,20.17
2018-11-21T13:35:47.675Z,21.03
2018-11-21T13:37:32.122Z,20.60
2018-11-21T13:39:09.681Z,20.80
2018-11-21T13:40:47.470Z,18.60
2018-11-21T13:42:16.324Z,20.87
2018-11-21T13:43:59.423Z,23.47
2018-11-21T13:45:34.571Z,22.13
2018-11-21T13:47:18.351Z,21.00
2018-11-21T13:48:55.588Z,21.37
2018-11-21T13:50:34.530Z,22.90
2018-11-21T13:52:14.280Z,20.73
2018-11-21T13:53:58.533Z,21.60
2018-11-21T13:55:16.205Z,18.87
2018-11-21T13:56:34.881Z,21.63
2018-11-21T13:57:52.731Z,21.20
2018-11-21T13:59:10.873Z,23.97
2018-11-21T14:00:29.243Z,23.57
2018-11-21T14:01:46.975Z,21.80
2018-11-21T14:03:05.015Z,18.20
2018-11-21T14:04:23.183Z,23.57
2018-11-21T14:05:41.095Z,20.83
2018-11-21T14:07:06.585Z,21.43
2018-11-21T14:08:24.583Z,22.23
2018-11-21T14:09:51.183Z,21.90
2018-11-21T14:11:09.025Z,23.00
2018-11-21T14:12:33.901Z,21.90
2018-11-21T14:13:52.469Z,22.20
2018-11-21T14:15:17.414Z,22.67
2018-11-21T14:16:35.228Z,21.60
2018-11-21T14:18:01.318Z,23.57
2018-11-21T14:19:20.458Z,24.53
2018-11-21T14:20:46.706Z,23.57
2018-11-21T14:22:05.115Z,22.97
2018-11-21T14:23:30.357Z,23.40
2018-11-21T14:24:48.341Z,24.23
2018-11-21T14:26:13.493Z,21.90
2018-11-21T14:27:31.587Z,24.20
2018-11-21T14:28:56.539Z,24.27
2018-11-21T14:30:15.624Z,24.40
2018-11-21T14:31:40.810Z,23.53
2018-11-21T14:33:06.738Z,22.90
2018-11-21T14:34:26.068Z,24.60
2018-11-21T14:35:55.956Z,27.03
2018-11-21T14:37:09.968Z,27.43
2018-11-21T14:38:35.262Z,25.93
2018-11-21T14:39:53.407Z,25.57
2018-11-21T14:41:19.238Z,23.83
2018-11-21T14:42:36.979Z,27.27
2018-11-21T14:44:02.503Z,24.87
2018-11-21T14:45:20.471Z,23.57
2018-11-21T14:46:47.251Z,23.37
2018-11-21T14:48:06.544Z,24.00
2018-11-21T14:49:31.902Z,23.80
2018-11-21T14:50:49.868Z,22.93
2018-11-21T14:52:14.728Z,23.33
2018-11-21T14:53:33.106Z,22.90
2018-11-21T14:55:00.051Z,23.13
2018-11-21T14:56:18.525Z,24.27
2018-11-21T14:57:36.624Z,23.93
2018-11-21T14:58:54.930Z,22.97
2018-11-21T15:00:21.025Z,24.83
2018-11-21T15:01:38.151Z,25.80
2018-11-21T15:03:03.436Z,25.77
2018-11-21T15:04:21.803Z,24.67
2018-11-21T15:07:43.210Z,23.07
2018-11-21T15:08:59.272Z,26.73
2018-11-21T15:10:25.047Z,23.00
2018-11-21T15:11:43.273Z,24.70
2018-11-21T15:13:01.167Z,27.17
2018-11-21T15:14:18.617Z,27.30
2018-11-21T15:15:43.760Z,27.33
2018-11-21T15:17:01.588Z,25.70
2018-11-21T15:18:27.513Z,27.00
2018-11-21T15:19:43.464Z,26.63
2018-11-21T15:21:08.921Z,27.13
2018-11-21T15:22:26.193Z,26.87
2018-11-21T15:23:51.592Z,26.30
2018-11-21T15:25:10.929Z,24.63
2018-11-21T15:26:36.790Z,25.63
2018-11-21T15:27:55.299Z,22.20
2018-11-21T15:29:20.134Z,25.73
2018-11-21T15:30:38.316Z,27.50
2018-11-21T15:32:03.246Z,26.80
2018-11-21T15:33:22.696Z,27.80
2018-11-21T15:34:48.399Z,28.00
2018-11-21T15:36:06.006Z,28.40
2018-11-21T15:37:31.279Z,29.67
2018-11-21T15:38:49.224Z,27.80
2018-11-21T15:40:33.324Z,28.03
2018-11-21T15:41:51.567Z,25.73
2018-11-21T15:43:16.478Z,25.30
2018-11-21T15:44:34.110Z,25.70
2018-11-21T15:46:00.346Z,26.20
2018-11-21T15:47:19.379Z,25.47
2018-11-21T15:50:42.113Z,25.93
2018-11-21T15:52:01.521Z,27.20
2018-11-21T15:53:25.875Z,28.87
2018-11-21T15:54:44.804Z,28.60
2018-11-21T15:56:03.971Z,28.47
2018-11-21T15:57:21.965Z,27.00
2018-11-21T15:58:40.184Z,27.73
2018-11-21T16:00:06.872Z,27.13
2018-11-21T16:01:24.636Z,27.80
2018-11-21T16:02:51.038Z,27.50
2018-11-21T16:04:07.480Z,29.37
2018-11-21T16:05:33.461Z,29.73
2018-11-21T16:06:51.964Z,27.90
2018-11-21T16:08:16.952Z,30.93
2018-11-21T16:09:35.142Z,29.47
2018-11-21T16:10:53.347Z,30.30
2018-11-21T16:12:12.509Z,29.50
2018-11-21T16:13:31.088Z,33.77
2018-11-21T16:14:48.651Z,30.83
2018-11-21T16:16:06.716Z,31.77
2018-11-21T16:17:32.386Z,32.50
2018-11-21T16:18:49.952Z,32.98
2018-11-21T16:20:16.149Z,33.37
2018-11-21T16:21:33.850Z,35.20
2018-11-21T16:22:59.625Z,33.93
2018-11-21T16:24:17.356Z,33.40
2018-11-21T16:25:42.530Z,35.37
2018-11-21T16:27:01.196Z,35.40
2018-11-21T16:28:27.950Z,35.23
2018-11-21T16:29:45.723Z,35.20
2018-11-21T16:31:10.860Z,34.20
2018-11-21T16:32:29.856Z,34.13
2018-11-21T16:33:55.048Z,37.33
2018-11-21T16:35:13.005Z,35.33
2018-11-21T16:36:38.388Z,34.20
2018-11-21T16:37:56.896Z,35.70
2018-11-21T16:39:14.748Z,37.00
2018-11-21T16:40:34.789Z,38.10
2018-11-21T16:41:52.288Z,38.40
2018-11-21T16:43:10.326Z,38.60
2018-11-21T16:44:29.599Z,38.33
2018-11-21T16:45:56.534Z,37.27
2018-11-21T16:47:14.680Z,37.53
2018-11-21T16:48:40.083Z,38.23
2018-11-21T16:49:58.408Z,36.50
2018-11-21T16:51:16.961Z,39.70
2018-11-21T16:52:34.770Z,40.30
2018-11-21T16:53:53.719Z,38.27
2018-11-21T16:55:12.729Z,36.67
2018-11-21T16:56:30.457Z,37.30
2018-11-21T16:57:49.471Z,37.43
2018-11-21T16:59:07.580Z,36.30
2018-11-21T17:00:26.840Z,36.83
2018-11-21T17:01:45.470Z,38.07
2018-11-21T17:03:04.072Z,37.50
2018-11-21T17:04:21.847Z,37.80
2018-11-21T17:05:40.125Z,38.20
2018-11-21T17:07:05.097Z,40.00
2018-11-21T17:08:13.980Z,38.67
2018-11-21T17:09:58.105Z,31.67
2018-11-21T17:11:16.490Z,37.37
2018-11-21T17:12:42.529Z,38.47
2018-11-21T17:13:58.923Z,39.57
2018-11-21T17:15:43.379Z,36.03
2018-11-21T17:17:01.613Z,35.88
2018-11-21T17:18:26.791Z,38.83
2018-11-21T17:19:45.837Z,39.00
2018-11-21T17:21:10.791Z,36.07
2018-11-21T17:22:28.595Z,40.50
2018-11-21T17:23:53.837Z,39.37
2018-11-21T17:25:32.695Z,39.05
2018-11-21T17:26:58.154Z,38.42
2018-11-21T17:28:16.171Z,39.40
2018-11-21T17:29:53.453Z,38.33
2018-11-21T17:30:59.404Z,38.30
2018-11-21T17:32:24.275Z,38.10
2018-11-21T17:33:33.965Z,38.53
2018-11-21T17:34:57.259Z,39.87
2018-11-21T17:36:15.637Z,38.40
2018-11-21T17:37:41.077Z,36.37
2018-11-21T17:38:59.448Z,36.70
2018-11-21T17:40:44.911Z,37.67
2018-11-21T17:42:02.577Z,38.80
2018-11-21T17:43:27.803Z,37.30
2018-11-21T17:44:46.509Z,36.05
2018-11-21T17:46:11.451Z,37.30
2018-11-21T17:47:29.370Z,36.90
2018-11-21T17:48:54.544Z,38.33
2018-11-21T17:50:13.837Z,38.57
2018-11-21T17:51:39.953Z,40.78
2018-11-21T17:52:58.818Z,38.47
2018-11-21T17:54:24.086Z,41.20
2018-11-21T17:55:41.836Z,38.57
2018-11-21T17:57:07.967Z,38.73
2018-11-21T17:58:27.764Z,38.60
2018-11-21T17:59:52.606Z,37.33
2018-11-21T18:01:10.458Z,36.43
2018-11-21T18:02:35.414Z,37.80
2018-11-21T18:03:54.488Z,36.30
2018-11-21T18:05:21.316Z,37.53
2018-11-21T18:06:39.616Z,39.40
2018-11-21T18:08:04.713Z,36.97
2018-11-21T18:09:25.137Z,37.98
2018-11-21T18:10:50.016Z,35.10
2018-11-21T18:12:07.600Z,37.83
2018-11-21T18:13:32.906Z,36.20